sensor_id;sensor_type;location;lat;lon;timestamp;P1;durP1;ratioP1;P2;durP2;ratioP2
64571;SDS011;51155;51.984;21.208;2023-06-04T00:02:12;1.20;;;0.80;;
64571;SDS011;51155;51.984;21.208;2023-06-04T00:04:43;2.20;;;1.00;;
64571;SDS011;51155;51.984;21.208;2023-06-04T00:07:15;2.30;;;1.30;;
64571;SDS011;51155;51.984;21.208;2023-06-04T00:09:47;2.00;;;1.10;;
64571;SDS011;51155;51.984;21.208;2023-06-04T00:12:19;1.50;;;1.00;;
64571;SDS011;51155;51.984;21.208;2023-06-04T00:14:50;3.40;;;1.20;;
64571;SDS011;51155;51.984;21.208;2023-06-04T00:17:22;2.60;;;1.00;;
64571;SDS011;51155;51.984;21.208;2023-06-04T00:19:53;2.20;;;1.20;;
64571;SDS011;51155;51.984;21.208;2023-06-04T00:22:25;2.00;;;1.00;;
64571;SDS011;51155;51.984;21.208;2023-06-04T00:24:57;2.00;;;0.90;;
64571;SDS011;51155;51.984;21.208;2023-06-04T00:27:29;1.70;;;1.20;;
64571;SDS011;51155;51.984;21.208;2023-06-04T00:30:00;2.00;;;1.10;;
64571;SDS011;51155;51.984;21.208;2023-06-04T00:32:32;1.70;;;1.00;;
64571;SDS011;51155;51.984;21.208;2023-06-04T00:35:04;1.60;;;0.90;;
64571;SDS011;51155;51.984;21.208;2023-06-04T00:37:36;2.30;;;1.30;;
64571;SDS011;51155;51.984;21.208;2023-06-04T00:40:08;1.60;;;0.90;;
64571;SDS011;51155;51.984;21.208;2023-06-04T00:42:40;2.30;;;1.10;;
64571;SDS011;51155;51.984;21.208;2023-06-04T00:45:11;2.20;;;1.10;;
64571;SDS011;51155;51.984;21.208;2023-06-04T00:47:45;1.80;;;1.10;;
64571;SDS011;51155;51.984;21.208;2023-06-04T00:50:17;2.10;;;1.20;;
64571;SDS011;51155;51.984;21.208;2023-06-04T00:52:49;2.30;;;0.90;;
64571;SDS011;51155;51.984;21.208;2023-06-04T00:55:21;2.10;;;1.00;;
64571;SDS011;51155;51.984;21.208;2023-06-04T00:57:53;2.30;;;1.10;;
64571;SDS011;51155;51.984;21.208;2023-06-04T01:00:25;1.80;;;1.10;;
64571;SDS011;51155;51.984;21.208;2023-06-04T01:02:58;2.80;;;1.20;;
64571;SDS011;51155;51.984;21.208;2023-06-04T01:06:00;2.50;;;1.30;;
64571;SDS011;51155;51.984;21.208;2023-06-04T01:08:30;2.10;;;1.20;;
64571;SDS011;51155;51.984;21.208;2023-06-04T01:11:02;2.40;;;1.10;;
64571;SDS011;51155;51.984;21.208;2023-06-04T01:13:33;3.00;;;1.10;;
64571;SDS011;51155;51.984;21.208;2023-06-04T01:16:05;2.20;;;1.00;;
64571;SDS011;51155;51.984;21.208;2023-06-04T01:18:37;2.60;;;1.20;;
64571;SDS011;51155;51.984;21.208;2023-06-04T01:21:10;2.00;;;1.10;;
64571;SDS011;51155;51.984;21.208;2023-06-04T01:23:50;2.30;;;1.20;;
64571;SDS011;51155;51.984;21.208;2023-06-04T01:26:32;1.90;;;1.10;;
64571;SDS011;51155;51.984;21.208;2023-06-04T01:29:03;2.00;;;1.20;;
64571;SDS011;51155;51.984;21.208;2023-06-04T01:31:35;2.10;;;1.20;;
64571;SDS011;51155;51.984;21.208;2023-06-04T01:34:08;2.60;;;1.40;;
64571;SDS011;51155;51.984;21.208;2023-06-04T01:36:40;2.80;;;1.10;;
64571;SDS011;51155;51.984;21.208;2023-06-04T01:39:11;2.80;;;1.10;;
64571;SDS011;51155;51.984;21.208;2023-06-04T01:41:43;2.00;;;1.30;;
64571;SDS011;51155;51.984;21.208;2023-06-04T01:44:15;2.20;;;1.20;;
64571;SDS011;51155;51.984;21.208;2023-06-04T01:46:47;2.80;;;1.40;;
64571;SDS011;51155;51.984;21.208;2023-06-04T01:49:18;2.00;;;1.10;;
64571;SDS011;51155;51.984;21.208;2023-06-04T01:51:50;3.00;;;0.90;;
64571;SDS011;51155;51.984;21.208;2023-06-04T01:54:22;2.10;;;1.10;;
64571;SDS011;51155;51.984;21.208;2023-06-04T01:56:53;2.20;;;1.20;;
64571;SDS011;51155;51.984;21.208;2023-06-04T01:59:25;1.60;;;1.20;;
64571;SDS011;51155;51.984;21.208;2023-06-04T02:04:30;1.90;;;1.10;;
64571;SDS011;51155;51.984;21.208;2023-06-04T02:07:02;1.70;;;1.00;;
64571;SDS011;51155;51.984;21.208;2023-06-04T02:09:34;2.50;;;1.40;;
64571;SDS011;51155;51.984;21.208;2023-06-04T02:12:06;3.60;;;1.20;;
64571;SDS011;51155;51.984;21.208;2023-06-04T02:14:43;2.40;;;1.20;;
64571;SDS011;51155;51.984;21.208;2023-06-04T02:17:16;2.10;;;1.20;;
64571;SDS011;51155;51.984;21.208;2023-06-04T02:19:48;2.20;;;1.20;;
64571;SDS011;51155;51.984;21.208;2023-06-04T02:22:22;2.20;;;1.10;;
64571;SDS011;51155;51.984;21.208;2023-06-04T02:24:53;3.10;;;1.50;;
64571;SDS011;51155;51.984;21.208;2023-06-04T02:27:25;2.10;;;1.30;;
64571;SDS011;51155;51.984;21.208;2023-06-04T02:29:56;3.00;;;1.50;;
64571;SDS011;51155;51.984;21.208;2023-06-04T02:32:28;2.30;;;1.20;;
64571;SDS011;51155;51.984;21.208;2023-06-04T02:35:00;2.90;;;1.50;;
64571;SDS011;51155;51.984;21.208;2023-06-04T02:37:32;2.40;;;1.30;;
64571;SDS011;51155;51.984;21.208;2023-06-04T02:40:04;3.70;;;1.40;;
64571;SDS011;51155;51.984;21.208;2023-06-04T02:42:36;2.50;;;1.10;;
64571;SDS011;51155;51.984;21.208;2023-06-04T02:45:08;2.10;;;1.30;;
64571;SDS011;51155;51.984;21.208;2023-06-04T02:47:39;2.40;;;1.60;;
64571;SDS011;51155;51.984;21.208;2023-06-04T02:50:13;2.00;;;1.20;;
64571;SDS011;51155;51.984;21.208;2023-06-04T02:52:45;3.60;;;1.70;;
64571;SDS011;51155;51.984;21.208;2023-06-04T02:55:16;3.30;;;1.30;;
64571;SDS011;51155;51.984;21.208;2023-06-04T02:57:48;2.50;;;1.30;;
64571;SDS011;51155;51.984;21.208;2023-06-04T03:00:20;2.90;;;1.60;;
64571;SDS011;51155;51.984;21.208;2023-06-04T03:02:51;2.50;;;1.30;;
64571;SDS011;51155;51.984;21.208;2023-06-04T03:05:23;2.50;;;1.50;;
64571;SDS011;51155;51.984;21.208;2023-06-04T03:07:58;2.80;;;1.50;;
64571;SDS011;51155;51.984;21.208;2023-06-04T03:10:31;2.10;;;1.30;;
64571;SDS011;51155;51.984;21.208;2023-06-04T03:13:03;2.00;;;1.10;;
64571;SDS011;51155;51.984;21.208;2023-06-04T03:15:35;3.80;;;1.40;;
64571;SDS011;51155;51.984;21.208;2023-06-04T03:18:11;4.30;;;1.80;;
64571;SDS011;51155;51.984;21.208;2023-06-04T03:20:42;2.90;;;1.50;;
64571;SDS011;51155;51.984;21.208;2023-06-04T03:23:14;3.30;;;1.90;;
64571;SDS011;51155;51.984;21.208;2023-06-04T03:25:46;3.10;;;1.70;;
64571;SDS011;51155;51.984;21.208;2023-06-04T03:28:18;2.40;;;1.40;;
64571;SDS011;51155;51.984;21.208;2023-06-04T03:30:49;5.50;;;1.70;;
64571;SDS011;51155;51.984;21.208;2023-06-04T03:33:23;3.30;;;1.70;;
64571;SDS011;51155;51.984;21.208;2023-06-04T03:35:56;3.40;;;1.50;;
64571;SDS011;51155;51.984;21.208;2023-06-04T03:38:30;3.70;;;1.80;;
64571;SDS011;51155;51.984;21.208;2023-06-04T03:41:02;2.60;;;1.40;;
64571;SDS011;51155;51.984;21.208;2023-06-04T03:43:34;2.60;;;1.70;;
64571;SDS011;51155;51.984;21.208;2023-06-04T03:46:08;2.30;;;1.30;;
64571;SDS011;51155;51.984;21.208;2023-06-04T03:48:41;3.50;;;1.80;;
64571;SDS011;51155;51.984;21.208;2023-06-04T03:51:14;3.30;;;2.00;;
64571;SDS011;51155;51.984;21.208;2023-06-04T03:53:46;3.50;;;1.50;;
64571;SDS011;51155;51.984;21.208;2023-06-04T03:56:17;2.40;;;1.40;;
64571;SDS011;51155;51.984;21.208;2023-06-04T03:58:50;3.00;;;1.50;;
64571;SDS011;51155;51.984;21.208;2023-06-04T04:01:22;3.10;;;1.90;;
64571;SDS011;51155;51.984;21.208;2023-06-04T04:03:58;2.10;;;1.30;;
64571;SDS011;51155;51.984;21.208;2023-06-04T04:06:30;3.20;;;1.60;;
64571;SDS011;51155;51.984;21.208;2023-06-04T04:09:02;2.40;;;1.30;;
64571;SDS011;51155;51.984;21.208;2023-06-04T04:11:35;3.00;;;1.70;;
64571;SDS011;51155;51.984;21.208;2023-06-04T04:14:07;3.00;;;1.50;;
64571;SDS011;51155;51.984;21.208;2023-06-04T04:16:39;3.60;;;1.90;;
64571;SDS011;51155;51.984;21.208;2023-06-04T04:19:10;2.80;;;1.40;;
64571;SDS011;51155;51.984;21.208;2023-06-04T04:21:43;2.60;;;1.20;;
64571;SDS011;51155;51.984;21.208;2023-06-04T04:24:28;2.90;;;1.40;;
64571;SDS011;51155;51.984;21.208;2023-06-04T04:27:04;3.00;;;1.30;;
64571;SDS011;51155;51.984;21.208;2023-06-04T04:29:36;4.60;;;1.80;;
64571;SDS011;51155;51.984;21.208;2023-06-04T04:32:08;2.60;;;1.40;;
64571;SDS011;51155;51.984;21.208;2023-06-04T04:34:52;2.50;;;1.50;;
64571;SDS011;51155;51.984;21.208;2023-06-04T04:37:29;2.40;;;1.10;;
64571;SDS011;51155;51.984;21.208;2023-06-04T04:40:01;1.90;;;1.30;;
64571;SDS011;51155;51.984;21.208;2023-06-04T04:42:35;3.40;;;1.50;;
64571;SDS011;51155;51.984;21.208;2023-06-04T04:45:08;2.40;;;1.40;;
64571;SDS011;51155;51.984;21.208;2023-06-04T04:47:41;2.60;;;1.40;;
64571;SDS011;51155;51.984;21.208;2023-06-04T04:50:12;2.30;;;1.40;;
64571;SDS011;51155;51.984;21.208;2023-06-04T04:52:44;3.20;;;1.40;;
64571;SDS011;51155;51.984;21.208;2023-06-04T04:55:16;3.70;;;1.70;;
64571;SDS011;51155;51.984;21.208;2023-06-04T04:57:49;2.40;;;1.40;;
64571;SDS011;51155;51.984;21.208;2023-06-04T05:00:21;2.10;;;1.40;;
64571;SDS011;51155;51.984;21.208;2023-06-04T05:02:56;2.00;;;1.30;;
64571;SDS011;51155;51.984;21.208;2023-06-04T05:05:28;2.50;;;1.30;;
64571;SDS011;51155;51.984;21.208;2023-06-04T05:08:00;3.70;;;1.40;;
64571;SDS011;51155;51.984;21.208;2023-06-04T05:10:35;3.10;;;1.60;;
64571;SDS011;51155;51.984;21.208;2023-06-04T05:13:08;2.10;;;1.30;;
64571;SDS011;51155;51.984;21.208;2023-06-04T05:15:45;2.10;;;1.40;;
64571;SDS011;51155;51.984;21.208;2023-06-04T05:20:52;2.70;;;1.40;;
64571;SDS011;51155;51.984;21.208;2023-06-04T05:23:23;3.30;;;1.50;;
64571;SDS011;51155;51.984;21.208;2023-06-04T05:25:55;2.00;;;1.30;;
64571;SDS011;51155;51.984;21.208;2023-06-04T05:28:27;2.00;;;1.20;;
64571;SDS011;51155;51.984;21.208;2023-06-04T05:30:59;1.90;;;1.20;;
64571;SDS011;51155;51.984;21.208;2023-06-04T05:33:35;2.40;;;1.40;;
64571;SDS011;51155;51.984;21.208;2023-06-04T05:36:10;2.70;;;1.40;;
64571;SDS011;51155;51.984;21.208;2023-06-04T05:38:46;3.80;;;1.30;;
64571;SDS011;51155;51.984;21.208;2023-06-04T05:41:19;2.30;;;1.10;;
64571;SDS011;51155;51.984;21.208;2023-06-04T05:43:55;2.60;;;1.10;;
64571;SDS011;51155;51.984;21.208;2023-06-04T05:46:27;1.80;;;1.20;;
64571;SDS011;51155;51.984;21.208;2023-06-04T05:48:59;2.00;;;1.10;;
64571;SDS011;51155;51.984;21.208;2023-06-04T05:54:03;2.20;;;1.00;;
64571;SDS011;51155;51.984;21.208;2023-06-04T05:56:36;1.80;;;1.10;;
64571;SDS011;51155;51.984;21.208;2023-06-04T05:59:08;2.20;;;1.40;;
64571;SDS011;51155;51.984;21.208;2023-06-04T06:01:39;1.50;;;1.10;;
64571;SDS011;51155;51.984;21.208;2023-06-04T06:04:11;1.70;;;1.00;;
64571;SDS011;51155;51.984;21.208;2023-06-04T06:06:44;1.90;;;1.10;;
64571;SDS011;51155;51.984;21.208;2023-06-04T06:09:19;2.10;;;1.20;;
64571;SDS011;51155;51.984;21.208;2023-06-04T06:11:51;1.80;;;1.10;;
64571;SDS011;51155;51.984;21.208;2023-06-04T06:14:23;2.20;;;1.20;;
64571;SDS011;51155;51.984;21.208;2023-06-04T06:16:56;2.70;;;1.20;;
64571;SDS011;51155;51.984;21.208;2023-06-04T06:19:27;2.60;;;1.20;;
64571;SDS011;51155;51.984;21.208;2023-06-04T06:21:59;2.30;;;1.20;;
64571;SDS011;51155;51.984;21.208;2023-06-04T06:24:32;2.20;;;1.20;;
64571;SDS011;51155;51.984;21.208;2023-06-04T06:27:04;2.80;;;1.10;;
64571;SDS011;51155;51.984;21.208;2023-06-04T06:29:36;2.10;;;1.20;;
64571;SDS011;51155;51.984;21.208;2023-06-04T06:32:09;2.30;;;1.20;;
64571;SDS011;51155;51.984;21.208;2023-06-04T06:34:41;1.60;;;1.10;;
64571;SDS011;51155;51.984;21.208;2023-06-04T06:37:12;2.40;;;1.30;;
64571;SDS011;51155;51.984;21.208;2023-06-04T06:39:44;2.10;;;1.20;;
64571;SDS011;51155;51.984;21.208;2023-06-04T06:42:16;1.90;;;1.10;;
64571;SDS011;51155;51.984;21.208;2023-06-04T06:44:51;1.90;;;1.00;;
64571;SDS011;51155;51.984;21.208;2023-06-04T06:47:22;1.70;;;1.00;;
64571;SDS011;51155;51.984;21.208;2023-06-04T06:49:55;2.70;;;1.30;;
64571;SDS011;51155;51.984;21.208;2023-06-04T06:52:27;1.60;;;0.90;;
64571;SDS011;51155;51.984;21.208;2023-06-04T06:54:58;5.20;;;1.20;;
64571;SDS011;51155;51.984;21.208;2023-06-04T06:57:30;1.40;;;1.00;;
64571;SDS011;51155;51.984;21.208;2023-06-04T07:00:02;1.70;;;0.90;;
64571;SDS011;51155;51.984;21.208;2023-06-04T07:02:34;1.90;;;1.10;;
64571;SDS011;51155;51.984;21.208;2023-06-04T07:05:06;1.90;;;1.20;;
64571;SDS011;51155;51.984;21.208;2023-06-04T07:07:38;4.00;;;1.20;;
64571;SDS011;51155;51.984;21.208;2023-06-04T07:10:10;2.60;;;1.10;;
64571;SDS011;51155;51.984;21.208;2023-06-04T07:12:42;2.20;;;1.20;;
64571;SDS011;51155;51.984;21.208;2023-06-04T07:15:14;2.60;;;1.00;;
64571;SDS011;51155;51.984;21.208;2023-06-04T07:17:45;2.60;;;1.30;;
64571;SDS011;51155;51.984;21.208;2023-06-04T07:20:17;3.80;;;1.20;;
64571;SDS011;51155;51.984;21.208;2023-06-04T07:22:49;3.40;;;1.00;;
64571;SDS011;51155;51.984;21.208;2023-06-04T07:25:21;2.00;;;1.10;;
64571;SDS011;51155;51.984;21.208;2023-06-04T07:27:55;4.10;;;1.30;;
64571;SDS011;51155;51.984;21.208;2023-06-04T07:30:30;3.30;;;1.20;;
64571;SDS011;51155;51.984;21.208;2023-06-04T07:33:03;3.20;;;1.10;;
64571;SDS011;51155;51.984;21.208;2023-06-04T07:35:35;2.10;;;1.10;;
64571;SDS011;51155;51.984;21.208;2023-06-04T07:38:07;2.70;;;1.30;;
64571;SDS011;51155;51.984;21.208;2023-06-04T07:40:38;2.40;;;1.20;;
64571;SDS011;51155;51.984;21.208;2023-06-04T07:43:10;2.50;;;1.20;;
64571;SDS011;51155;51.984;21.208;2023-06-04T07:45:42;2.50;;;1.30;;
64571;SDS011;51155;51.984;21.208;2023-06-04T07:48:13;3.20;;;1.10;;
64571;SDS011;51155;51.984;21.208;2023-06-04T07:50:45;3.00;;;1.40;;
64571;SDS011;51155;51.984;21.208;2023-06-04T07:53:17;1.80;;;1.10;;
64571;SDS011;51155;51.984;21.208;2023-06-04T07:55:48;2.40;;;1.10;;
64571;SDS011;51155;51.984;21.208;2023-06-04T07:58:21;1.60;;;1.00;;
64571;SDS011;51155;51.984;21.208;2023-06-04T08:00:53;1.90;;;1.10;;
64571;SDS011;51155;51.984;21.208;2023-06-04T08:03:24;2.50;;;1.20;;
64571;SDS011;51155;51.984;21.208;2023-06-04T08:05:56;2.10;;;1.10;;
64571;SDS011;51155;51.984;21.208;2023-06-04T08:08:28;3.00;;;1.20;;
64571;SDS011;51155;51.984;21.208;2023-06-04T08:10:59;2.00;;;1.10;;
64571;SDS011;51155;51.984;21.208;2023-06-04T08:13:31;2.00;;;1.00;;
64571;SDS011;51155;51.984;21.208;2023-06-04T08:16:03;3.20;;;1.20;;
64571;SDS011;51155;51.984;21.208;2023-06-04T08:18:37;3.10;;;1.30;;
64571;SDS011;51155;51.984;21.208;2023-06-04T08:21:10;2.00;;;1.00;;
64571;SDS011;51155;51.984;21.208;2023-06-04T08:23:42;4.20;;;1.10;;
64571;SDS011;51155;51.984;21.208;2023-06-04T08:26:14;6.60;;;1.50;;
64571;SDS011;51155;51.984;21.208;2023-06-04T08:28:49;3.10;;;1.10;;
64571;SDS011;51155;51.984;21.208;2023-06-04T08:31:21;3.80;;;1.20;;
64571;SDS011;51155;51.984;21.208;2023-06-04T08:33:53;2.80;;;0.90;;
64571;SDS011;51155;51.984;21.208;2023-06-04T08:36:24;1.80;;;0.70;;
64571;SDS011;51155;51.984;21.208;2023-06-04T08:38:56;2.40;;;0.60;;
64571;SDS011;51155;51.984;21.208;2023-06-04T08:41:51;1.20;;;0.50;;
64571;SDS011;51155;51.984;21.208;2023-06-04T08:44:21;1.20;;;0.50;;
64571;SDS011;51155;51.984;21.208;2023-06-04T08:46:53;2.70;;;0.60;;
64571;SDS011;51155;51.984;21.208;2023-06-04T08:49:25;2.10;;;0.60;;
64571;SDS011;51155;51.984;21.208;2023-06-04T08:51:57;3.10;;;0.70;;
64571;SDS011;51155;51.984;21.208;2023-06-04T08:54:29;2.90;;;0.50;;
64571;SDS011;51155;51.984;21.208;2023-06-04T08:57:02;1.50;;;0.60;;
64571;SDS011;51155;51.984;21.208;2023-06-04T09:02:07;0.80;;;0.40;;
64571;SDS011;51155;51.984;21.208;2023-06-04T09:07:13;1.80;;;0.60;;
64571;SDS011;51155;51.984;21.208;2023-06-04T09:09:46;2.30;;;0.60;;
64571;SDS011;51155;51.984;21.208;2023-06-04T09:12:36;1.30;;;0.40;;
64571;SDS011;51155;51.984;21.208;2023-06-04T09:15:08;2.00;;;0.70;;
64571;SDS011;51155;51.984;21.208;2023-06-04T09:17:40;3.20;;;0.60;;
64571;SDS011;51155;51.984;21.208;2023-06-04T09:20:20;1.30;;;0.50;;
64571;SDS011;51155;51.984;21.208;2023-06-04T09:22:51;1.70;;;0.70;;
64571;SDS011;51155;51.984;21.208;2023-06-04T09:25:24;1.10;;;0.60;;
64571;SDS011;51155;51.984;21.208;2023-06-04T09:28:05;1.80;;;0.40;;
64571;SDS011;51155;51.984;21.208;2023-06-04T09:30:37;1.60;;;0.50;;
64571;SDS011;51155;51.984;21.208;2023-06-04T09:33:09;1.00;;;0.60;;
64571;SDS011;51155;51.984;21.208;2023-06-04T09:35:41;2.00;;;0.50;;
64571;SDS011;51155;51.984;21.208;2023-06-04T09:38:12;0.80;;;0.50;;
64571;SDS011;51155;51.984;21.208;2023-06-04T09:40:44;2.00;;;0.40;;
64571;SDS011;51155;51.984;21.208;2023-06-04T09:43:22;1.30;;;0.60;;
64571;SDS011;51155;51.984;21.208;2023-06-04T09:45:55;2.50;;;0.60;;
64571;SDS011;51155;51.984;21.208;2023-06-04T09:48:26;1.30;;;0.50;;
64571;SDS011;51155;51.984;21.208;2023-06-04T09:51:09;1.50;;;0.50;;
64571;SDS011;51155;51.984;21.208;2023-06-04T09:56:12;1.80;;;0.40;;
64571;SDS011;51155;51.984;21.208;2023-06-04T09:58:45;2.10;;;0.70;;
64571;SDS011;51155;51.984;21.208;2023-06-04T10:01:17;1.90;;;0.50;;
64571;SDS011;51155;51.984;21.208;2023-06-04T10:03:50;2.30;;;0.50;;
64571;SDS011;51155;51.984;21.208;2023-06-04T10:06:24;1.00;;;0.40;;
64571;SDS011;51155;51.984;21.208;2023-06-04T10:08:57;0.70;;;0.40;;
64571;SDS011;51155;51.984;21.208;2023-06-04T10:11:35;1.00;;;0.50;;
64571;SDS011;51155;51.984;21.208;2023-06-04T10:16:43;2.00;;;0.60;;
64571;SDS011;51155;51.984;21.208;2023-06-04T10:19:15;1.70;;;0.50;;
64571;SDS011;51155;51.984;21.208;2023-06-04T10:21:47;0.60;;;0.40;;
64571;SDS011;51155;51.984;21.208;2023-06-04T10:24:19;1.80;;;0.30;;
64571;SDS011;51155;51.984;21.208;2023-06-04T10:29:25;3.00;;;0.50;;
64571;SDS011;51155;51.984;21.208;2023-06-04T10:31:57;1.70;;;0.50;;
64571;SDS011;51155;51.984;21.208;2023-06-04T10:34:28;1.00;;;0.30;;
64571;SDS011;51155;51.984;21.208;2023-06-04T10:37:00;0.90;;;0.30;;
64571;SDS011;51155;51.984;21.208;2023-06-04T10:39:32;1.60;;;0.50;;
64571;SDS011;51155;51.984;21.208;2023-06-04T10:42:05;1.70;;;0.60;;
64571;SDS011;51155;51.984;21.208;2023-06-04T10:44:45;1.00;;;0.40;;
64571;SDS011;51155;51.984;21.208;2023-06-04T10:47:25;2.30;;;0.50;;
64571;SDS011;51155;51.984;21.208;2023-06-04T10:50:07;0.80;;;0.40;;
64571;SDS011;51155;51.984;21.208;2023-06-04T10:52:52;2.30;;;0.50;;
64571;SDS011;51155;51.984;21.208;2023-06-04T10:55:24;1.60;;;0.40;;
64571;SDS011;51155;51.984;21.208;2023-06-04T10:57:58;0.80;;;0.40;;
64571;SDS011;51155;51.984;21.208;2023-06-04T11:00:41;0.70;;;0.40;;
64571;SDS011;51155;51.984;21.208;2023-06-04T11:03:13;0.90;;;0.20;;
64571;SDS011;51155;51.984;21.208;2023-06-04T11:05:46;2.00;;;0.40;;
64571;SDS011;51155;51.984;21.208;2023-06-04T11:08:28;0.80;;;0.50;;
64571;SDS011;51155;51.984;21.208;2023-06-04T11:11:10;0.80;;;0.50;;
64571;SDS011;51155;51.984;21.208;2023-06-04T11:13:43;2.00;;;0.50;;
64571;SDS011;51155;51.984;21.208;2023-06-04T11:18:56;2.70;;;0.90;;
64571;SDS011;51155;51.984;21.208;2023-06-04T11:21:28;1.80;;;0.90;;
64571;SDS011;51155;51.984;21.208;2023-06-04T11:24:00;2.90;;;0.90;;
64571;SDS011;51155;51.984;21.208;2023-06-04T11:26:33;1.50;;;0.80;;
64571;SDS011;51155;51.984;21.208;2023-06-04T11:29:10;2.10;;;0.80;;
64571;SDS011;51155;51.984;21.208;2023-06-04T11:31:44;4.20;;;1.10;;
64571;SDS011;51155;51.984;21.208;2023-06-04T11:34:29;3.40;;;1.40;;
64571;SDS011;51155;51.984;21.208;2023-06-04T11:37:08;3.60;;;1.30;;
64571;SDS011;51155;51.984;21.208;2023-06-04T11:39:41;3.10;;;1.40;;
64571;SDS011;51155;51.984;21.208;2023-06-04T11:42:15;3.80;;;1.50;;
64571;SDS011;51155;51.984;21.208;2023-06-04T11:44:47;4.30;;;1.60;;
64571;SDS011;51155;51.984;21.208;2023-06-04T11:47:20;5.70;;;1.90;;
64571;SDS011;51155;51.984;21.208;2023-06-04T11:49:55;5.60;;;1.60;;
64571;SDS011;51155;51.984;21.208;2023-06-04T11:52:27;5.10;;;1.80;;
64571;SDS011;51155;51.984;21.208;2023-06-04T11:54:59;5.80;;;1.20;;
64571;SDS011;51155;51.984;21.208;2023-06-04T11:57:31;4.90;;;1.30;;
64571;SDS011;51155;51.984;21.208;2023-06-04T12:00:03;4.20;;;1.40;;
64571;SDS011;51155;51.984;21.208;2023-06-04T12:02:54;3.00;;;1.20;;
64571;SDS011;51155;51.984;21.208;2023-06-04T12:05:30;2.10;;;1.20;;
64571;SDS011;51155;51.984;21.208;2023-06-04T12:08:10;5.00;;;1.20;;
64571;SDS011;51155;51.984;21.208;2023-06-04T12:10:42;3.90;;;1.20;;
64571;SDS011;51155;51.984;21.208;2023-06-04T12:13:14;3.00;;;1.10;;
64571;SDS011;51155;51.984;21.208;2023-06-04T12:15:52;4.40;;;1.30;;
64571;SDS011;51155;51.984;21.208;2023-06-04T12:18:24;3.00;;;1.20;;
64571;SDS011;51155;51.984;21.208;2023-06-04T12:20:57;2.70;;;1.00;;
64571;SDS011;51155;51.984;21.208;2023-06-04T12:23:29;4.20;;;1.20;;
64571;SDS011;51155;51.984;21.208;2023-06-04T12:26:00;1.90;;;0.90;;
64571;SDS011;51155;51.984;21.208;2023-06-04T12:28:35;2.40;;;0.80;;
64571;SDS011;51155;51.984;21.208;2023-06-04T12:33:47;1.70;;;0.40;;
64571;SDS011;51155;51.984;21.208;2023-06-04T12:36:18;1.70;;;0.50;;
64571;SDS011;51155;51.984;21.208;2023-06-04T12:38:51;1.60;;;0.60;;
64571;SDS011;51155;51.984;21.208;2023-06-04T12:41:22;2.20;;;0.60;;
64571;SDS011;51155;51.984;21.208;2023-06-04T12:43:54;2.00;;;0.60;;
64571;SDS011;51155;51.984;21.208;2023-06-04T12:46:26;2.40;;;0.50;;
64571;SDS011;51155;51.984;21.208;2023-06-04T12:48:58;1.90;;;0.70;;
64571;SDS011;51155;51.984;21.208;2023-06-04T12:51:30;2.20;;;0.60;;
64571;SDS011;51155;51.984;21.208;2023-06-04T12:54:01;1.10;;;0.60;;
64571;SDS011;51155;51.984;21.208;2023-06-04T12:56:33;2.20;;;0.60;;
64571;SDS011;51155;51.984;21.208;2023-06-04T12:59:05;0.90;;;0.50;;
64571;SDS011;51155;51.984;21.208;2023-06-04T13:01:37;1.70;;;0.50;;
64571;SDS011;51155;51.984;21.208;2023-06-04T13:06:41;1.00;;;0.50;;
64571;SDS011;51155;51.984;21.208;2023-06-04T13:09:13;0.70;;;0.50;;
64571;SDS011;51155;51.984;21.208;2023-06-04T13:11:45;1.20;;;0.40;;
64571;SDS011;51155;51.984;21.208;2023-06-04T13:14:17;2.00;;;0.50;;
64571;SDS011;51155;51.984;21.208;2023-06-04T13:16:48;1.30;;;0.50;;
64571;SDS011;51155;51.984;21.208;2023-06-04T13:19:23;1.20;;;0.50;;
64571;SDS011;51155;51.984;21.208;2023-06-04T13:21:57;0.90;;;0.50;;
64571;SDS011;51155;51.984;21.208;2023-06-04T13:24:29;2.50;;;0.60;;
64571;SDS011;51155;51.984;21.208;2023-06-04T13:27:01;1.70;;;0.60;;
64571;SDS011;51155;51.984;21.208;2023-06-04T13:29:33;1.90;;;0.50;;
64571;SDS011;51155;51.984;21.208;2023-06-04T13:32:06;1.50;;;0.70;;
64571;SDS011;51155;51.984;21.208;2023-06-04T13:34:37;1.40;;;0.50;;
64571;SDS011;51155;51.984;21.208;2023-06-04T13:37:09;2.70;;;0.50;;
64571;SDS011;51155;51.984;21.208;2023-06-04T13:39:45;1.10;;;0.50;;
64571;SDS011;51155;51.984;21.208;2023-06-04T13:42:16;1.50;;;0.50;;
64571;SDS011;51155;51.984;21.208;2023-06-04T13:44:48;1.50;;;0.50;;
64571;SDS011;51155;51.984;21.208;2023-06-04T13:47:20;4.40;;;0.40;;
64571;SDS011;51155;51.984;21.208;2023-06-04T13:49:53;1.40;;;0.70;;
64571;SDS011;51155;51.984;21.208;2023-06-04T13:52:24;1.20;;;0.50;;
64571;SDS011;51155;51.984;21.208;2023-06-04T13:54:56;1.90;;;0.60;;
64571;SDS011;51155;51.984;21.208;2023-06-04T13:57:29;0.60;;;0.40;;
64571;SDS011;51155;51.984;21.208;2023-06-04T14:00:01;2.40;;;0.60;;
64571;SDS011;51155;51.984;21.208;2023-06-04T14:02:34;2.30;;;0.70;;
64571;SDS011;51155;51.984;21.208;2023-06-04T14:05:07;2.40;;;0.70;;
64571;SDS011;51155;51.984;21.208;2023-06-04T14:07:41;2.40;;;0.70;;
64571;SDS011;51155;51.984;21.208;2023-06-04T14:10:13;1.50;;;0.70;;
64571;SDS011;51155;51.984;21.208;2023-06-04T14:12:45;1.10;;;0.40;;
64571;SDS011;51155;51.984;21.208;2023-06-04T14:15:17;1.90;;;0.70;;
64571;SDS011;51155;51.984;21.208;2023-06-04T14:17:48;1.90;;;0.60;;
64571;SDS011;51155;51.984;21.208;2023-06-04T14:20:20;1.90;;;0.40;;
64571;SDS011;51155;51.984;21.208;2023-06-04T14:22:52;3.80;;;0.90;;
64571;SDS011;51155;51.984;21.208;2023-06-04T14:25:23;0.60;;;0.40;;
64571;SDS011;51155;51.984;21.208;2023-06-04T14:27:55;0.90;;;0.40;;
64571;SDS011;51155;51.984;21.208;2023-06-04T14:30:27;0.60;;;0.50;;
64571;SDS011;51155;51.984;21.208;2023-06-04T14:32:58;1.70;;;0.60;;
64571;SDS011;51155;51.984;21.208;2023-06-04T14:35:30;2.40;;;0.60;;
64571;SDS011;51155;51.984;21.208;2023-06-04T14:38:02;2.80;;;0.50;;
64571;SDS011;51155;51.984;21.208;2023-06-04T14:40:33;0.80;;;0.40;;
64571;SDS011;51155;51.984;21.208;2023-06-04T14:43:07;1.00;;;0.60;;
64571;SDS011;51155;51.984;21.208;2023-06-04T14:45:39;1.90;;;0.60;;
64571;SDS011;51155;51.984;21.208;2023-06-04T14:48:11;1.00;;;0.50;;
64571;SDS011;51155;51.984;21.208;2023-06-04T14:50:46;2.40;;;0.60;;
64571;SDS011;51155;51.984;21.208;2023-06-04T14:53:18;1.70;;;0.80;;
64571;SDS011;51155;51.984;21.208;2023-06-04T14:55:50;1.00;;;0.60;;
64571;SDS011;51155;51.984;21.208;2023-06-04T14:58:24;0.60;;;0.40;;
64571;SDS011;51155;51.984;21.208;2023-06-04T15:00:55;0.90;;;0.40;;
64571;SDS011;51155;51.984;21.208;2023-06-04T15:03:32;0.30;;;0.30;;
64571;SDS011;51155;51.984;21.208;2023-06-04T15:06:04;3.00;;;0.70;;
64571;SDS011;51155;51.984;21.208;2023-06-04T15:08:50;0.60;;;0.40;;
64571;SDS011;51155;51.984;21.208;2023-06-04T15:11:21;1.10;;;0.50;;
64571;SDS011;51155;51.984;21.208;2023-06-04T15:13:53;2.20;;;0.70;;
64571;SDS011;51155;51.984;21.208;2023-06-04T15:16:25;2.10;;;0.60;;
64571;SDS011;51155;51.984;21.208;2023-06-04T15:18:56;1.70;;;0.60;;
64571;SDS011;51155;51.984;21.208;2023-06-04T15:21:28;0.70;;;0.50;;
64571;SDS011;51155;51.984;21.208;2023-06-04T15:24:00;1.00;;;0.50;;
64571;SDS011;51155;51.984;21.208;2023-06-04T15:26:32;0.80;;;0.50;;
64571;SDS011;51155;51.984;21.208;2023-06-04T15:29:03;1.50;;;0.50;;
64571;SDS011;51155;51.984;21.208;2023-06-04T15:31:35;0.80;;;0.40;;
64571;SDS011;51155;51.984;21.208;2023-06-04T15:34:07;2.20;;;0.60;;
64571;SDS011;51155;51.984;21.208;2023-06-04T15:36:38;1.10;;;0.50;;